sensor_id;sensor_type;location;lat;lon;timestamp;P1;durP1;ratioP1;P2;durP2;ratioP2
65174;SDS011;51761;42.126;24.752;2022-11-24T00:00:24;52.05;;;21.98;;
65174;SDS011;51761;42.126;24.752;2022-11-24T00:02:50;45.50;;;21.60;;
65174;SDS011;51761;42.126;24.752;2022-11-24T00:05:15;45.83;;;20.77;;
65174;SDS011;51761;42.126;24.752;2022-11-24T00:07:41;45.10;;;21.25;;
65174;SDS011;51761;42.126;24.752;2022-11-24T00:10:06;45.95;;;21.92;;
65174;SDS011;51761;42.126;24.752;2022-11-24T00:12:32;45.58;;;20.48;;
65174;SDS011;51761;42.126;24.752;2022-11-24T00:14:57;49.17;;;22.55;;
65174;SDS011;51761;42.126;24.752;2022-11-24T00:17:23;45.30;;;23.13;;
65174;SDS011;51761;42.126;24.752;2022-11-24T00:19:48;50.35;;;22.60;;
65174;SDS011;51761;42.126;24.752;2022-11-24T00:22:14;45.47;;;21.98;;
65174;SDS011;51761;42.126;24.752;2022-11-24T00:24:39;50.42;;;22.45;;
65174;SDS011;51761;42.126;24.752;2022-11-24T00:27:05;47.08;;;22.15;;
65174;SDS011;51761;42.126;24.752;2022-11-24T00:29:30;54.33;;;22.77;;
65174;SDS011;51761;42.126;24.752;2022-11-24T00:31:56;47.15;;;22.52;;
65174;SDS011;51761;42.126;24.752;2022-11-24T00:34:21;51.70;;;23.80;;
65174;SDS011;51761;42.126;24.752;2022-11-24T00:36:47;50.38;;;24.25;;
65174;SDS011;51761;42.126;24.752;2022-11-24T00:39:13;49.75;;;22.88;;
65174;SDS011;51761;42.126;24.752;2022-11-24T00:41:39;51.60;;;23.10;;
65174;SDS011;51761;42.126;24.752;2022-11-24T00:44:06;43.33;;;22.50;;
65174;SDS011;51761;42.126;24.752;2022-11-24T00:46:32;53.53;;;22.70;;
65174;SDS011;51761;42.126;24.752;2022-11-24T00:48:57;45.25;;;19.98;;
65174;SDS011;51761;42.126;24.752;2022-11-24T00:51:25;43.55;;;22.08;;
65174;SDS011;51761;42.126;24.752;2022-11-24T00:53:53;39.58;;;21.58;;
65174;SDS011;51761;42.126;24.752;2022-11-24T00:56:20;39.13;;;19.92;;
65174;SDS011;51761;42.126;24.752;2022-11-24T00:58:45;36.47;;;18.27;;
65174;SDS011;51761;42.126;24.752;2022-11-24T01:01:15;34.60;;;16.23;;
65174;SDS011;51761;42.126;24.752;2022-11-24T01:03:43;34.22;;;15.73;;
65174;SDS011;51761;42.126;24.752;2022-11-24T01:06:10;26.42;;;13.52;;
65174;SDS011;51761;42.126;24.752;2022-11-24T01:08:40;27.48;;;12.95;;
65174;SDS011;51761;42.126;24.752;2022-11-24T01:13:32;28.00;;;13.15;;
65174;SDS011;51761;42.126;24.752;2022-11-24T01:15:57;25.67;;;12.70;;
65174;SDS011;51761;42.126;24.752;2022-11-24T01:18:23;29.83;;;13.02;;
65174;SDS011;51761;42.126;24.752;2022-11-24T01:20:48;25.38;;;12.32;;
65174;SDS011;51761;42.126;24.752;2022-11-24T01:23:13;21.60;;;12.43;;
65174;SDS011;51761;42.126;24.752;2022-11-24T01:25:39;26.63;;;13.20;;
65174;SDS011;51761;42.126;24.752;2022-11-24T01:28:04;29.52;;;15.02;;
65174;SDS011;51761;42.126;24.752;2022-11-24T01:30:30;27.20;;;14.70;;
65174;SDS011;51761;42.126;24.752;2022-11-24T01:32:55;32.92;;;16.42;;
65174;SDS011;51761;42.126;24.752;2022-11-24T01:35:21;31.83;;;16.08;;
65174;SDS011;51761;42.126;24.752;2022-11-24T01:37:46;33.53;;;15.40;;
65174;SDS011;51761;42.126;24.752;2022-11-24T01:40:12;31.60;;;16.08;;
65174;SDS011;51761;42.126;24.752;2022-11-24T01:42:47;34.60;;;16.63;;
65174;SDS011;51761;42.126;24.752;2022-11-24T01:45:29;39.33;;;21.13;;
65174;SDS011;51761;42.126;24.752;2022-11-24T01:47:57;38.78;;;17.15;;
65174;SDS011;51761;42.126;24.752;2022-11-24T01:50:24;37.10;;;17.70;;
65174;SDS011;51761;42.126;24.752;2022-11-24T01:52:51;37.05;;;17.13;;
65174;SDS011;51761;42.126;24.752;2022-11-24T01:55:20;38.45;;;19.25;;
65174;SDS011;51761;42.126;24.752;2022-11-24T01:57:51;37.40;;;18.52;;
65174;SDS011;51761;42.126;24.752;2022-11-24T02:00:23;39.50;;;18.02;;
65174;SDS011;51761;42.126;24.752;2022-11-24T02:02:49;39.53;;;19.42;;
65174;SDS011;51761;42.126;24.752;2022-11-24T02:11:11;39.58;;;19.58;;
65174;SDS011;51761;42.126;24.752;2022-11-24T02:13:37;38.95;;;19.58;;
65174;SDS011;51761;42.126;24.752;2022-11-24T02:16:05;41.97;;;21.13;;
65174;SDS011;51761;42.126;24.752;2022-11-24T02:18:34;40.90;;;21.10;;
65174;SDS011;51761;42.126;24.752;2022-11-24T02:21:02;46.55;;;22.15;;
65174;SDS011;51761;42.126;24.752;2022-11-24T02:23:37;39.13;;;20.73;;
65174;SDS011;51761;42.126;24.752;2022-11-24T02:28:56;36.92;;;20.17;;
65174;SDS011;51761;42.126;24.752;2022-11-24T02:31:21;37.33;;;19.83;;
65174;SDS011;51761;42.126;24.752;2022-11-24T02:33:47;34.88;;;19.27;;
65174;SDS011;51761;42.126;24.752;2022-11-24T02:36:14;42.42;;;21.55;;
65174;SDS011;51761;42.126;24.752;2022-11-24T02:38:40;38.33;;;20.63;;
65174;SDS011;51761;42.126;24.752;2022-11-24T02:41:06;42.53;;;22.38;;
65174;SDS011;51761;42.126;24.752;2022-11-24T02:43:40;43.33;;;21.83;;
65174;SDS011;51761;42.126;24.752;2022-11-24T02:46:07;46.53;;;23.58;;
65174;SDS011;51761;42.126;24.752;2022-11-24T02:48:35;47.00;;;22.55;;
65174;SDS011;51761;42.126;24.752;2022-11-24T02:51:01;46.67;;;22.33;;
65174;SDS011;51761;42.126;24.752;2022-11-24T02:53:27;42.90;;;21.52;;
65174;SDS011;51761;42.126;24.752;2022-11-24T02:55:52;50.28;;;23.48;;
65174;SDS011;51761;42.126;24.752;2022-11-24T02:58:18;37.72;;;21.58;;
65174;SDS011;51761;42.126;24.752;2022-11-24T03:00:43;40.97;;;21.85;;
65174;SDS011;51761;42.126;24.752;2022-11-24T03:03:09;39.17;;;20.90;;
65174;SDS011;51761;42.126;24.752;2022-11-24T03:05:35;43.38;;;22.20;;
65174;SDS011;51761;42.126;24.752;2022-11-24T03:08:01;37.92;;;20.00;;
65174;SDS011;51761;42.126;24.752;2022-11-24T03:10:27;47.85;;;20.80;;
65174;SDS011;51761;42.126;24.752;2022-11-24T03:12:53;38.92;;;20.95;;
65174;SDS011;51761;42.126;24.752;2022-11-24T03:15:19;39.08;;;20.40;;
65174;SDS011;51761;42.126;24.752;2022-11-24T03:17:45;45.78;;;21.42;;
65174;SDS011;51761;42.126;24.752;2022-11-24T03:20:23;40.45;;;21.42;;
65174;SDS011;51761;42.126;24.752;2022-11-24T03:22:49;45.90;;;21.70;;
65174;SDS011;51761;42.126;24.752;2022-11-24T03:25:31;41.60;;;20.17;;
65174;SDS011;51761;42.126;24.752;2022-11-24T03:27:56;38.10;;;20.75;;
65174;SDS011;51761;42.126;24.752;2022-11-24T03:30:22;34.83;;;19.52;;
65174;SDS011;51761;42.126;24.752;2022-11-24T03:32:49;38.10;;;20.80;;
65174;SDS011;51761;42.126;24.752;2022-11-24T03:35:17;40.67;;;19.73;;
65174;SDS011;51761;42.126;24.752;2022-11-24T03:37:44;42.83;;;19.67;;
65174;SDS011;51761;42.126;24.752;2022-11-24T03:40:15;38.83;;;19.75;;
65174;SDS011;51761;42.126;24.752;2022-11-24T03:42:42;37.20;;;18.83;;
65174;SDS011;51761;42.126;24.752;2022-11-24T03:45:07;37.53;;;19.85;;
65174;SDS011;51761;42.126;24.752;2022-11-24T03:47:33;35.67;;;18.55;;
65174;SDS011;51761;42.126;24.752;2022-11-24T03:49:58;36.88;;;17.65;;
65174;SDS011;51761;42.126;24.752;2022-11-24T03:52:24;31.42;;;16.88;;
65174;SDS011;51761;42.126;24.752;2022-11-24T03:55:05;31.75;;;17.63;;
65174;SDS011;51761;42.126;24.752;2022-11-24T03:57:30;34.13;;;17.50;;
65174;SDS011;51761;42.126;24.752;2022-11-24T03:59:56;32.03;;;15.43;;
65174;SDS011;51761;42.126;24.752;2022-11-24T04:02:21;37.55;;;16.23;;
65174;SDS011;51761;42.126;24.752;2022-11-24T04:04:47;30.35;;;16.08;;
65174;SDS011;51761;42.126;24.752;2022-11-24T04:07:14;33.83;;;15.13;;
65174;SDS011;51761;42.126;24.752;2022-11-24T04:09:40;32.00;;;15.75;;
65174;SDS011;51761;42.126;24.752;2022-11-24T04:15:10;29.92;;;15.65;;
65174;SDS011;51761;42.126;24.752;2022-11-24T04:17:37;32.42;;;16.60;;
65174;SDS011;51761;42.126;24.752;2022-11-24T04:20:03;35.80;;;16.05;;
65174;SDS011;51761;42.126;24.752;2022-11-24T04:22:29;28.23;;;15.63;;
65174;SDS011;51761;42.126;24.752;2022-11-24T04:24:54;35.10;;;16.48;;
65174;SDS011;51761;42.126;24.752;2022-11-24T04:27:20;36.40;;;15.25;;
65174;SDS011;51761;42.126;24.752;2022-11-24T04:29:45;28.80;;;16.65;;
65174;SDS011;51761;42.126;24.752;2022-11-24T04:32:11;38.00;;;15.32;;
65174;SDS011;51761;42.126;24.752;2022-11-24T04:34:36;32.22;;;14.70;;
65174;SDS011;51761;42.126;24.752;2022-11-24T04:37:02;29.15;;;15.38;;
65174;SDS011;51761;42.126;24.752;2022-11-24T04:39:28;33.03;;;15.10;;
65174;SDS011;51761;42.126;24.752;2022-11-24T04:41:53;32.63;;;15.68;;
65174;SDS011;51761;42.126;24.752;2022-11-24T04:44:19;35.15;;;15.13;;
65174;SDS011;51761;42.126;24.752;2022-11-24T04:46:44;30.05;;;14.48;;
65174;SDS011;51761;42.126;24.752;2022-11-24T04:49:10;37.42;;;15.52;;
65174;SDS011;51761;42.126;24.752;2022-11-24T04:51:36;28.08;;;14.43;;
65174;SDS011;51761;42.126;24.752;2022-11-24T04:54:03;33.80;;;15.80;;
65174;SDS011;51761;42.126;24.752;2022-11-24T04:56:29;29.52;;;15.35;;
65174;SDS011;51761;42.126;24.752;2022-11-24T04:58:55;65.03;;;27.75;;
65174;SDS011;51761;42.126;24.752;2022-11-24T05:01:20;49.05;;;23.88;;
65174;SDS011;51761;42.126;24.752;2022-11-24T05:03:58;39.05;;;15.35;;
65174;SDS011;51761;42.126;24.752;2022-11-24T05:06:24;53.90;;;23.10;;
65174;SDS011;51761;42.126;24.752;2022-11-24T05:08:50;32.97;;;15.90;;
65174;SDS011;51761;42.126;24.752;2022-11-24T05:11:17;36.42;;;15.57;;
65174;SDS011;51761;42.126;24.752;2022-11-24T05:17:22;52.33;;;22.30;;
65174;SDS011;51761;42.126;24.752;2022-11-24T05:26:40;30.73;;;15.05;;
65174;SDS011;51761;42.126;24.752;2022-11-24T05:32:27;34.33;;;15.48;;
65174;SDS011;51761;42.126;24.752;2022-11-24T05:38:15;30.77;;;15.50;;
65174;SDS011;51761;42.126;24.752;2022-11-24T05:40:42;33.95;;;16.60;;
65174;SDS011;51761;42.126;24.752;2022-11-24T05:43:09;38.00;;;18.15;;
65174;SDS011;51761;42.126;24.752;2022-11-24T05:45:41;34.33;;;16.67;;
65174;SDS011;51761;42.126;24.752;2022-11-24T05:55:10;33.03;;;14.73;;
65174;SDS011;51761;42.126;24.752;2022-11-24T06:01:04;30.58;;;14.13;;
65174;SDS011;51761;42.126;24.752;2022-11-24T06:03:30;37.20;;;15.73;;
65174;SDS011;51761;42.126;24.752;2022-11-24T06:05:56;43.47;;;16.25;;
65174;SDS011;51761;42.126;24.752;2022-11-24T06:08:21;44.33;;;16.15;;
65174;SDS011;51761;42.126;24.752;2022-11-24T06:10:47;37.85;;;15.70;;
65174;SDS011;51761;42.126;24.752;2022-11-24T06:13:12;28.92;;;14.68;;
65174;SDS011;51761;42.126;24.752;2022-11-24T06:15:38;44.45;;;21.15;;
65174;SDS011;51761;42.126;24.752;2022-11-24T06:28:50;53.22;;;19.00;;
65174;SDS011;51761;42.126;24.752;2022-11-24T06:31:16;44.80;;;17.90;;
65174;SDS011;51761;42.126;24.752;2022-11-24T06:33:41;37.75;;;18.65;;
65174;SDS011;51761;42.126;24.752;2022-11-24T06:36:08;44.38;;;17.63;;
65174;SDS011;51761;42.126;24.752;2022-11-24T06:38:36;78.85;;;35.25;;
65174;SDS011;51761;42.126;24.752;2022-11-24T06:41:02;66.50;;;27.63;;
65174;SDS011;51761;42.126;24.752;2022-11-24T06:43:30;42.78;;;19.60;;
65174;SDS011;51761;42.126;24.752;2022-11-24T06:45:57;36.53;;;17.88;;
65174;SDS011;51761;42.126;24.752;2022-11-24T06:48:23;37.25;;;16.75;;
65174;SDS011;51761;42.126;24.752;2022-11-24T06:50:49;48.45;;;19.10;;
65174;SDS011;51761;42.126;24.752;2022-11-24T06:53:15;43.22;;;17.30;;
65174;SDS011;51761;42.126;24.752;2022-11-24T06:55:41;33.95;;;15.57;;
65174;SDS011;51761;42.126;24.752;2022-11-24T06:58:07;27.90;;;14.68;;
65174;SDS011;51761;42.126;24.752;2022-11-24T07:00:33;32.53;;;14.85;;
65174;SDS011;51761;42.126;24.752;2022-11-24T07:02:59;41.47;;;18.95;;
65174;SDS011;51761;42.126;24.752;2022-11-24T07:05:25;23.52;;;13.82;;
65174;SDS011;51761;42.126;24.752;2022-11-24T07:07:51;33.80;;;12.02;;
65174;SDS011;51761;42.126;24.752;2022-11-24T07:10:17;24.30;;;9.95;;
65174;SDS011;51761;42.126;24.752;2022-11-24T07:12:42;21.38;;;9.05;;
65174;SDS011;51761;42.126;24.752;2022-11-24T07:15:08;15.40;;;8.15;;
65174;SDS011;51761;42.126;24.752;2022-11-24T07:17:35;24.98;;;8.90;;
65174;SDS011;51761;42.126;24.752;2022-11-24T07:20:02;14.60;;;7.53;;
65174;SDS011;51761;42.126;24.752;2022-11-24T07:22:29;17.65;;;7.75;;
65174;SDS011;51761;42.126;24.752;2022-11-24T07:24:54;18.35;;;7.90;;
65174;SDS011;51761;42.126;24.752;2022-11-24T07:27:20;16.13;;;6.53;;
65174;SDS011;51761;42.126;24.752;2022-11-24T07:29:45;15.20;;;6.30;;
65174;SDS011;51761;42.126;24.752;2022-11-24T07:32:10;12.93;;;5.75;;
65174;SDS011;51761;42.126;24.752;2022-11-24T07:34:36;12.07;;;6.60;;
65174;SDS011;51761;42.126;24.752;2022-11-24T07:37:01;14.02;;;5.97;;
65174;SDS011;51761;42.126;24.752;2022-11-24T07:39:27;13.32;;;6.47;;
65174;SDS011;51761;42.126;24.752;2022-11-24T07:41:52;16.65;;;6.32;;
65174;SDS011;51761;42.126;24.752;2022-11-24T07:44:18;13.75;;;6.07;;
65174;SDS011;51761;42.126;24.752;2022-11-24T07:46:43;9.63;;;6.10;;
65174;SDS011;51761;42.126;24.752;2022-11-24T07:49:09;10.82;;;5.88;;
65174;SDS011;51761;42.126;24.752;2022-11-24T07:51:34;15.07;;;5.82;;
65174;SDS011;51761;42.126;24.752;2022-11-24T07:54:01;14.43;;;6.60;;
65174;SDS011;51761;42.126;24.752;2022-11-24T07:56:26;16.13;;;7.72;;
65174;SDS011;51761;42.126;24.752;2022-11-24T07:58:51;12.93;;;6.15;;
65174;SDS011;51761;42.126;24.752;2022-11-24T08:01:17;26.77;;;13.32;;
65174;SDS011;51761;42.126;24.752;2022-11-24T08:03:43;18.80;;;8.25;;
65174;SDS011;51761;42.126;24.752;2022-11-24T08:06:10;17.63;;;6.93;;
65174;SDS011;51761;42.126;24.752;2022-11-24T08:08:36;13.73;;;6.60;;
65174;SDS011;51761;42.126;24.752;2022-11-24T08:11:05;15.43;;;6.88;;
65174;SDS011;51761;42.126;24.752;2022-11-24T08:13:33;15.18;;;6.28;;
65174;SDS011;51761;42.126;24.752;2022-11-24T08:16:02;12.85;;;5.82;;
65174;SDS011;51761;42.126;24.752;2022-11-24T08:18:32;14.27;;;6.03;;
65174;SDS011;51761;42.126;24.752;2022-11-24T08:20:58;19.50;;;9.18;;
65174;SDS011;51761;42.126;24.752;2022-11-24T08:23:24;14.48;;;6.85;;
65174;SDS011;51761;42.126;24.752;2022-11-24T08:25:51;9.70;;;5.95;;
65174;SDS011;51761;42.126;24.752;2022-11-24T08:28:19;14.57;;;6.18;;
65174;SDS011;51761;42.126;24.752;2022-11-24T08:30:45;15.10;;;6.03;;
65174;SDS011;51761;42.126;24.752;2022-11-24T08:33:10;18.55;;;5.88;;
65174;SDS011;51761;42.126;24.752;2022-11-24T08:35:37;17.05;;;5.90;;
65174;SDS011;51761;42.126;24.752;2022-11-24T08:38:03;13.98;;;5.35;;
65174;SDS011;51761;42.126;24.752;2022-11-24T08:40:29;21.38;;;9.63;;
65174;SDS011;51761;42.126;24.752;2022-11-24T08:42:58;19.00;;;9.43;;
65174;SDS011;51761;42.126;24.752;2022-11-24T08:45:24;16.45;;;7.88;;
65174;SDS011;51761;42.126;24.752;2022-11-24T08:47:50;13.27;;;7.28;;
65174;SDS011;51761;42.126;24.752;2022-11-24T08:50:20;12.18;;;5.60;;
65174;SDS011;51761;42.126;24.752;2022-11-24T08:52:47;12.23;;;5.50;;
65174;SDS011;51761;42.126;24.752;2022-11-24T08:55:12;12.23;;;6.65;;
65174;SDS011;51761;42.126;24.752;2022-11-24T08:57:38;10.13;;;5.65;;
65174;SDS011;51761;42.126;24.752;2022-11-24T09:00:04;14.77;;;6.05;;
65174;SDS011;51761;42.126;24.752;2022-11-24T09:02:30;18.58;;;5.78;;
65174;SDS011;51761;42.126;24.752;2022-11-24T09:04:56;11.52;;;5.90;;
65174;SDS011;51761;42.126;24.752;2022-11-24T09:07:22;13.48;;;5.05;;
65174;SDS011;51761;42.126;24.752;2022-11-24T09:09:48;10.45;;;5.10;;
65174;SDS011;51761;42.126;24.752;2022-11-24T09:12:14;8.63;;;5.28;;
65174;SDS011;51761;42.126;24.752;2022-11-24T09:14:39;11.90;;;4.85;;
65174;SDS011;51761;42.126;24.752;2022-11-24T09:17:05;14.15;;;4.53;;
65174;SDS011;51761;42.126;24.752;2022-11-24T09:19:30;10.23;;;4.50;;
65174;SDS011;51761;42.126;24.752;2022-11-24T09:21:56;5.97;;;3.70;;
65174;SDS011;51761;42.126;24.752;2022-11-24T09:24:21;16.95;;;6.03;;
65174;SDS011;51761;42.126;24.752;2022-11-24T09:26:47;11.52;;;5.05;;
65174;SDS011;51761;42.126;24.752;2022-11-24T09:29:12;10.80;;;3.83;;
65174;SDS011;51761;42.126;24.752;2022-11-24T09:31:38;10.55;;;4.20;;
65174;SDS011;51761;42.126;24.752;2022-11-24T09:34:05;12.10;;;4.57;;
65174;SDS011;51761;42.126;24.752;2022-11-24T09:36:32;11.10;;;4.82;;
65174;SDS011;51761;42.126;24.752;2022-11-24T09:38:58;13.05;;;5.28;;
65174;SDS011;51761;42.126;24.752;2022-11-24T09:52:49;13.77;;;4.55;;
65174;SDS011;51761;42.126;24.752;2022-11-24T09:55:30;6.88;;;3.15;;
65174;SDS011;51761;42.126;24.752;2022-11-24T10:00:59;13.93;;;3.70;;
65174;SDS011;51761;42.126;24.752;2022-11-24T10:06:03;8.90;;;2.90;;
65174;SDS011;51761;42.126;24.752;2022-11-24T10:09:28;8.05;;;2.80;;
65174;SDS011;51761;42.126;24.752;2022-11-24T10:11:38;9.43;;;3.03;;
65174;SDS011;51761;42.126;24.752;2022-11-24T10:17:16;7.57;;;2.90;;
65174;SDS011;51761;42.126;24.752;2022-11-24T10:19:50;7.28;;;2.55;;
65174;SDS011;51761;42.126;24.752;2022-11-24T10:27:42;8.68;;;2.80;;
65174;SDS011;51761;42.126;24.752;2022-11-24T10:30:18;8.50;;;2.83;;
65174;SDS011;51761;42.126;24.752;2022-11-24T10:32:49;7.25;;;2.80;;
65174;SDS011;51761;42.126;24.752;2022-11-24T10:35:44;9.98;;;2.80;;
65174;SDS011;51761;42.126;24.752;2022-11-24T10:40:50;8.50;;;2.47;;
65174;SDS011;51761;42.126;24.752;2022-11-24T10:43:20;7.22;;;2.97;;
65174;SDS011;51761;42.126;24.752;2022-11-24T10:45:46;6.60;;;3.10;;
65174;SDS011;51761;42.126;24.752;2022-11-24T10:48:16;5.30;;;2.40;;
65174;SDS011;51761;42.126;24.752;2022-11-24T10:50:46;4.00;;;2.05;;
65174;SDS011;51761;42.126;24.752;2022-11-24T10:55:58;5.60;;;1.90;;
65174;SDS011;51761;42.126;24.752;2022-11-24T10:58:30;3.17;;;1.40;;
65174;SDS011;51761;42.126;24.752;2022-11-24T11:00:59;5.65;;;2.00;;
65174;SDS011;51761;42.126;24.752;2022-11-24T11:03:55;10.77;;;2.53;;
65174;SDS011;51761;42.126;24.752;2022-11-24T11:06:26;6.57;;;2.28;;
65174;SDS011;51761;42.126;24.752;2022-11-24T11:11:31;15.18;;;2.55;;
65174;SDS011;51761;42.126;24.752;2022-11-24T11:14:07;5.10;;;1.77;;
65174;SDS011;51761;42.126;24.752;2022-11-24T11:16:42;5.45;;;2.00;;
65174;SDS011;51761;42.126;24.752;2022-11-24T11:19:32;2.70;;;1.80;;
65174;SDS011;51761;42.126;24.752;2022-11-24T11:24:39;6.65;;;1.98;;
65174;SDS011;51761;42.126;24.752;2022-11-24T11:32:18;8.98;;;2.45;;
65174;SDS011;51761;42.126;24.752;2022-11-24T11:34:44;7.53;;;2.97;;
65174;SDS011;51761;42.126;24.752;2022-11-24T11:37:11;9.85;;;3.35;;
65174;SDS011;51761;42.126;24.752;2022-11-24T11:39:39;8.05;;;2.13;;
65174;SDS011;51761;42.126;24.752;2022-11-24T11:42:13;6.95;;;3.03;;
65174;SDS011;51761;42.126;24.752;2022-11-24T11:44:54;15.18;;;3.50;;
65174;SDS011;51761;42.126;24.752;2022-11-24T11:47:35;4.82;;;2.20;;
65174;SDS011;51761;42.126;24.752;2022-11-24T11:50:16;4.80;;;2.13;;
65174;SDS011;51761;42.126;24.752;2022-11-24T12:18:10;4.90;;;1.88;;
65174;SDS011;51761;42.126;24.752;2022-11-24T12:29:05;11.50;;;2.75;;
65174;SDS011;51761;42.126;24.752;2022-11-24T12:45:15;6.53;;;4.15;;
65174;SDS011;51761;42.126;24.752;2022-11-24T12:50:38;10.05;;;5.40;;
65174;SDS011;51761;42.126;24.752;2022-11-24T12:53:11;17.38;;;5.40;;
65174;SDS011;51761;42.126;24.752;2022-11-24T12:55:48;8.07;;;5.05;;
65174;SDS011;51761;42.126;24.752;2022-11-24T13:06:37;12.30;;;5.13;;
65174;SDS011;51761;42.126;24.752;2022-11-24T13:09:17;5.47;;;3.65;;
65174;SDS011;51761;42.126;24.752;2022-11-24T13:11:44;6.45;;;4.07;;
65174;SDS011;51761;42.126;24.752;2022-11-24T13:14:21;7.32;;;4.18;;
65174;SDS011;51761;42.126;24.752;2022-11-24T13:16:49;10.40;;;4.03;;
65174;SDS011;51761;42.126;24.752;2022-11-24T13:24:30;6.45;;;4.00;;
65174;SDS011;51761;42.126;24.752;2022-11-24T13:29:47;8.13;;;4.32;;
65174;SDS011;51761;42.126;24.752;2022-11-24T13:39:59;5.40;;;3.95;;
65174;SDS011;51761;42.126;24.752;2022-11-24T13:56:18;8.90;;;3.67;;
65174;SDS011;51761;42.126;24.752;2022-11-24T13:59:31;4.60;;;2.90;;
65174;SDS011;51761;42.126;24.752;2022-11-24T14:01:57;4.68;;;2.80;;
65174;SDS011;51761;42.126;24.752;2022-11-24T14:04:23;10.95;;;3.63;;
65174;SDS011;51761;42.126;24.752;2022-11-24T14:12:05;4.55;;;2.28;;
65174;SDS011;51761;42.126;24.752;2022-11-24T14:14:41;6.10;;;2.30;;
65174;SDS011;51761;42.126;24.752;2022-11-24T14:19:37;4.82;;;2.90;;
65174;SDS011;51761;42.126;24.752;2022-11-24T14:22:03;11.55;;;2.72;;
65174;SDS011;51761;42.126;24.752;2022-11-24T14:24:31;4.25;;;2.88;;
65174;SDS011;51761;42.126;24.752;2022-11-24T14:26:58;8.77;;;3.05;;
65174;SDS011;51761;42.126;24.752;2022-11-24T14:29:25;5.47;;;3.17;;
65174;SDS011;51761;42.126;24.752;2022-11-24T14:32:00;7.50;;;3.67;;
65174;SDS011;51761;42.126;24.752;2022-11-24T14:34:29;7.30;;;3.05;;
65174;SDS011;51761;42.126;24.752;2022-11-24T14:36:56;7.28;;;3.03;;
65174;SDS011;51761;42.126;24.752;2022-11-24T14:39:23;9.00;;;3.38;;
65174;SDS011;51761;42.126;24.752;2022-11-24T14:44:27;8.98;;;4.00;;
65174;SDS011;51761;42.126;24.752;2022-11-24T14:47:02;6.25;;;3.70;;
65174;SDS011;51761;42.126;24.752;2022-11-24T14:49:30;7.80;;;3.97;;
65174;SDS011;51761;42.126;24.752;2022-11-24T14:52:02;7.97;;;3.63;;
65174;SDS011;51761;42.126;24.752;2022-11-24T14:54:42;7.18;;;3.35;;
65174;SDS011;51761;42.126;24.752;2022-11-24T14:57:30;9.32;;;3.15;;
65174;SDS011;51761;42.126;24.752;2022-11-24T15:00:14;7.05;;;3.78;;
65174;SDS011;51761;42.126;24.752;2022-11-24T15:02:53;8.70;;;3.20;;
65174;SDS011;51761;42.126;24.752;2022-11-24T15:05:54;6.28;;;3.20;;
65174;SDS011;51761;42.126;24.752;2022-11-24T15:08:25;6.90;;;3.67;;
65174;SDS011;51761;42.126;24.752;2022-11-24T15:10:59;10.23;;;4.00;;
65174;SDS011;51761;42.126;24.752;2022-11-24T15:13:26;4.53;;;3.38;;
65174;SDS011;51761;42.126;24.752;2022-11-24T15:15:57;5.78;;;3.83;;
65174;SDS011;51761;42.126;24.752;2022-11-24T15:18:26;9.27;;;4.13;;
65174;SDS011;51761;42.126;24.752;2022-11-24T15:21:00;9.68;;;5.15;;
65174;SDS011;51761;42.126;24.752;2022-11-24T15:25:53;10.93;;;4.00;;
65174;SDS011;51761;42.126;24.752;2022-11-24T15:28:22;9.32;;;4.03;;
65174;SDS011;51761;42.126;24.752;2022-11-24T15:30:52;12.43;;;4.60;;
65174;SDS011;51761;42.126;24.752;2022-11-24T15:33:19;10.68;;;5.30;;
65174;SDS011;51761;42.126;24.752;2022-11-24T15:35:45;11.00;;;4.50;;
65174;SDS011;51761;42.126;24.752;2022-11-24T15:38:12;13.35;;;5.85;;
65174;SDS011;51761;42.126;24.752;2022-11-24T15:40:38;14.43;;;5.35;;
65174;SDS011;51761;42.126;24.752;2022-11-24T15:45:51;9.32;;;5.55;;
65174;SDS011;51761;42.126;24.752;2022-11-24T15:48:17;18.33;;;5.72;;
65174;SDS011;51761;42.126;24.752;2022-11-24T15:50:43;12.77;;;5.72;;
65174;SDS011;51761;42.126;24.752;2022-11-24T15:53:14;10.05;;;5.57;;
65174;SDS011;51761;42.126;24.752;2022-11-24T15:55:43;14.23;;;4.72;;
65174;SDS011;51761;42.126;24.752;2022-11-24T15:58:10;12.15;;;5.35;;
65174;SDS011;51761;42.126;24.752;2022-11-24T16:00:38;10.60;;;5.25;;
65174;SDS011;51761;42.126;24.752;2022-11-24T16:03:04;18.52;;;5.45;;
65174;SDS011;51761;42.126;24.752;2022-11-24T16:05:29;9.35;;;5.30;;
65174;SDS011;51761;42.126;24.752;2022-11-24T16:07:56;11.55;;;4.70;;
65174;SDS011;51761;42.126;24.752;2022-11-24T16:12:47;7.18;;;4.25;;
65174;SDS011;51761;42.126;24.752;2022-11-24T16:15:12;8.82;;;4.70;;
65174;SDS011;51761;42.126;24.752;2022-11-24T16:17:38;8.45;;;4.60;;
65174;SDS011;51761;42.126;24.752;2022-11-24T16:20:04;8.02;;;4.20;;
65174;SDS011;51761;42.126;24.752;2022-11-24T16:22:30;11.70;;;5.28;;
65174;SDS011;51761;42.126;24.752;2022-11-24T16:24:55;12.43;;;5.05;;
65174;SDS011;51761;42.126;24.752;2022-11-24T16:27:21;8.18;;;4.78;;
65174;SDS011;51761;42.126;24.752;2022-11-24T16:29:46;10.65;;;4.97;;
65174;SDS011;51761;42.126;24.752;2022-11-24T16:32:12;7.40;;;4.30;;
65174;SDS011;51761;42.126;24.752;2022-11-24T16:34:37;7.28;;;4.07;;
65174;SDS011;51761;42.126;24.752;2022-11-24T16:37:02;11.20;;;4.30;;
65174;SDS011;51761;42.126;24.752;2022-11-24T16:39:28;6.57;;;4.20;;
65174;SDS011;51761;42.126;24.752;2022-11-24T16:41:53;7.18;;;3.83;;
65174;SDS011;51761;42.126;24.752;2022-11-24T16:44:19;6.78;;;3.72;;
65174;SDS011;51761;42.126;24.752;2022-11-24T16:46:44;6.40;;;3.85;;
65174;SDS011;51761;42.126;24.752;2022-11-24T16:49:10;7.05;;;4.75;;
65174;SDS011;51761;42.126;24.752;2022-11-24T16:51:35;5.25;;;3.67;;
65174;SDS011;51761;42.126;24.752;2022-11-24T16:54:01;9.10;;;4.50;;
65174;SDS011;51761;42.126;24.752;2022-11-24T16:56:27;9.80;;;4.85;;
65174;SDS011;51761;42.126;24.752;2022-11-24T16:58:54;8.05;;;4.00;;
65174;SDS011;51761;42.126;24.752;2022-11-24T17:01:20;6.85;;;3.92;;
65174;SDS011;51761;42.126;24.752;2022-11-24T17:03:46;11.20;;;4.38;;
65174;SDS011;51761;42.126;24.752;2022-11-24T17:06:13;7.35;;;4.05;;
65174;SDS011;51761;42.126;24.752;2022-11-24T17:08:40;8.05;;;4.10;;
65174;SDS011;51761;42.126;24.752;2022-11-24T17:11:07;8.13;;;4.68;;
65174;SDS011;51761;42.126;24.752;2022-11-24T17:13:34;7.80;;;4.15;;
65174;SDS011;51761;42.126;24.752;2022-11-24T17:16:07;6.47;;;3.90;;
65174;SDS011;51761;42.126;24.752;2022-11-24T17:18:34;15.95;;;5.00;;
65174;SDS011;51761;42.126;24.752;2022-11-24T17:21:00;7.43;;;4.60;;
65174;SDS011;51761;42.126;24.752;2022-11-24T17:23:26;9.02;;;5.13;;
65174;SDS011;51761;42.126;24.752;2022-11-24T17:25:52;12.10;;;4.50;;
65174;SDS011;51761;42.126;24.752;2022-11-24T17:28:18;11.65;;;4.97;;
65174;SDS011;51761;42.126;24.752;2022-11-24T17:30:44;11.57;;;4.70;;
65174;SDS011;51761;42.126;24.752;2022-11-24T17:33:11;8.85;;;4.53;;
65174;SDS011;51761;42.126;24.752;2022-11-24T17:35:36;9.73;;;4.95;;
65174;SDS011;51761;42.126;24.752;2022-11-24T17:38:02;14.73;;;5.45;;
65174;SDS011;51761;42.126;24.752;2022-11-24T17:40:28;7.38;;;4.15;;
65174;SDS011;51761;42.126;24.752;2022-11-24T17:42:57;7.72;;;4.90;;